Data for 06/17/2010

Time Sea-Level Adjusted Pressure Absolute Pressure Temperature Relative Humidity Dew Point   
(mb) (inHg) (mb) (inHg) (C) (F) (%) (C) (F)
00:05 1011 29.85 840 24.81 8.7 47.6 92 7.4 45.2
00:10 1011 29.85 840 24.81 8.6 47.5 92 7.3 45.2
00:15 1011 29.85 840 24.81 8.6 47.5 92 7.4 45.3
00:20 1011 29.85 841 24.83 8.5 47.4 92 7.3 45.2
00:25 1011 29.85 841 24.83 8.4 47.2 92 7.3 45.1
00:30 1012 29.88 841 24.83 8.5 47.2 93 7.3 45.2
00:35 1012 29.88 841 24.83 8.5 47.2 92 7.3 45.1
00:40 1012 29.88 841 24.83 8.4 47.2 92 7.3 45.1
00:45 1012 29.88 841 24.83 8.5 47.2 92 7.3 45.1
00:50 1012 29.88 841 24.83 8.5 47.3 92 7.3 45.2
00:55 1012 29.88 841 24.83 8.5 47.3 92 7.3 45.1
01:00 1012 29.88 841 24.83 8.5 47.4 91 7.2 44.9
01:05 1012 29.88 841 24.83 8.5 47.3 91 7.2 44.9
01:10 1012 29.88 841 24.83 8.6 47.4 92 7.3 45.2
01:15 1012 29.88 841 24.83 8.6 47.6 91 7.3 45.2
01:20 1012 29.88 841 24.83 8.5 47.4 92 7.3 45.1
01:25 1012 29.88 841 24.83 8.5 47.3 92 7.3 45.1
01:30 1012 29.88 841 24.83 8.4 47.1 92 7.3 45.1
01:35 1012 29.88 841 24.83 8.4 47 93 7.3 45.1
01:40 1012 29.88 841 24.83 8.3 47 92 7.1 44.8
01:45 1012 29.88 841 24.83 8.2 46.7 93 7.1 44.7
01:50 1012 29.88 841 24.83 8.1 46.7 92 6.9 44.4
01:55 1012 29.88 841 24.83 8 46.5 84 5.5 41.9
02:00 1012 29.88 841 24.83 8.2 46.7 89 6.4 43.5
02:05 1012 29.88 841 24.83 8.1 46.5 89 6.3 43.4
02:10 1012 29.88 841 24.83 8 46.4 89 6.3 43.4
02:15 1012 29.88 841 24.83 7.8 46.1 90 6.4 43.5
02:20 1012 29.88 841 24.83 7.8 46 91 6.3 43.4
02:25 1012 29.88 841 24.83 7.8 46 93 6.8 44.2
02:30 1012 29.88 841 24.83 7.7 45.8 93 6.7 44.1
02:35 1012 29.88 841 24.83 7.8 46.1 94 6.9 44.4
02:40 1012 29.88 841 24.83 7.8 46.1 94 6.9 44.4
02:45 1012 29.88 841 24.83 7.8 46.1 93 6.8 44.2
02:50 1012 29.88 841 24.83 7.8 46 90 6.3 43.3
02:55 1012 29.88 841 24.83 7.7 45.9 91 6.4 43.5
03:00 1012 29.88 841 24.83 7.7 45.9 92 6.5 43.7
03:05 1012 29.88 841 24.83 7.8 46.1 90 6.3 43.4
03:10 1012 29.88 841 24.83 7.9 46.1 88 6 42.8
03:15 1012 29.88 841 24.83 7.9 46.2 88 6 42.8
03:20 1012 29.88 841 24.83 7.9 46.3 88 6.1 42.9
03:25 1012 29.88 841 24.83 7.9 46.3 86 5.7 42.3
03:30 1012 29.88 842 24.86 7.9 46.3 85 5.6 42.1
03:35 1012 29.88 842 24.86 8 46.3 83 5.3 41.5
03:40 1012 29.88 841 24.83 7.9 46.2 80 4.7 40.5
03:45 1012 29.88 841 24.83 7.9 46.2 84 5.4 41.8
03:50 1012 29.88 841 24.83 7.8 46 84 5.2 41.4
03:55 1012 29.88 841 24.83 7.8 46.1 76 3.9 39.1
04:00 1012 29.88 841 24.83 8 46.4 80 4.8 40.6
04:05 1012 29.88 841 24.83 7.9 46.2 82 4.9 40.9
04:10 1012 29.88 841 24.83 7.9 46.2 80 4.6 40.4
04:15 1012 29.88 841 24.83 8 46.4 80 4.7 40.5
04:20 1012 29.88 841 24.83 7.8 46.1 82 5 41
04:25 1012 29.88 841 24.83 7.7 45.9 81 4.7 40.4
04:30 1012 29.88 841 24.83 7.7 45.9 81 4.6 40.3
04:35 1012 29.88 841 24.83 7.9 46.2 77 4.2 39.6
04:40 1012 29.88 841 24.83 8.1 46.7 81 5.1 41.1
04:45 1012 29.88 841 24.83 8 46.4 79 4.6 40.3
04:50 1012 29.88 841 24.83 8 46.3 79 4.5 40.1
04:55 1012 29.88 841 24.83 7.9 46.2 83 5.1 41.2
05:00 1012 29.88 841 24.83 7.8 46 80 4.4 40
05:05 1012 29.88 841 24.83 7.7 45.9 79 4.3 39.7
05:10 1012 29.88 841 24.83 7.5 45.5 78 4 39.2
05:15 1012 29.88 841 24.83 7.4 45.3 78 3.9 39.1
05:20 1012 29.88 841 24.83 7.4 45.2 80 4.2 39.5
05:25 1012 29.88 841 24.83 7.2 45 81 4.2 39.5
05:30 1012 29.88 841 24.83 7.2 44.9 82 4.3 39.8
05:35 1012 29.88 841 24.83 7.2 44.9 80 4 39.2
05:40 1012 29.88 842 24.86 7.2 44.9 80 3.9 39.1
05:45 1012 29.88 842 24.86 7.2 45 77 3.5 38.2
05:50 1012 29.88 842 24.86 7.1 44.8 74 2.8 37
05:55 1013 29.91 842 24.86 6.8 44.3 69 1.5 34.8
06:00 1013 29.91 842 24.86 6.7 44 71 1.9 35.4
06:05 1013 29.91 842 24.86 6.5 43.8 65 0.5 32.9
06:10 1013 29.91 842 24.86 6.6 43.9 66 0.9 33.5
06:15 1013 29.91 842 24.86 6.5 43.8 67 0.9 33.6
06:20 1013 29.91 842 24.86 6.3 43.4 70 1.3 34.3
06:25 1013 29.91 842 24.86 6.2 43.1 72 1.5 34.8
06:30 1013 29.91 842 24.86 6.1 43.1 69 0.9 33.6
06:35 1013 29.91 842 24.86 6.2 43.2 68 0.7 33.3
06:40 1013 29.91 842 24.86 6.3 43.3 66 0.5 32.8
06:45 1013 29.91 842 24.86 6.4 43.5 66 0.6 33.1
06:50 1013 29.91 843 24.89 6.4 43.5 66 0.5 33
06:55 1013 29.91 843 24.89 6.4 43.5 66 0.4 32.8
07:00 1013 29.91 843 24.89 6.4 43.5 66 0.5 32.9
07:05 1013 29.91 843 24.89 6.4 43.5 66 0.4 32.8
07:10 1014 29.94 843 24.89 6.4 43.6 65 0.3 32.5
07:15 1014 29.94 843 24.89 6.4 43.6 64 0.1 32.1
07:20 1014 29.94 843 24.89 6.5 43.6 63 -0.1 31.8
07:25 1014 29.94 843 24.89 6.5 43.8 61 -0.3 31.4
07:30 1014 29.94 843 24.89 6.7 44 59 -0.6 30.8
07:35 1014 29.94 843 24.89 6.7 44.1 60 -0.5 31.1
07:40 1014 29.94 843 24.89 6.7 44 60 -0.5 31.2
07:45 1014 29.94 843 24.89 6.8 44.2 57 -1.1 30
07:50 1014 29.94 843 24.89 6.8 44.3 57 -1.1 30.1
07:55 1014 29.94 843 24.89 6.9 44.4 56 -1.3 29.6
08:00 1014 29.94 843 24.89 6.9 44.4 58 -0.7 30.7
08:05 1014 29.94 843 24.89 6.8 44.2 59 -0.7 30.8
08:10 1014 29.94 843 24.89 6.8 44.2 59 -0.6 30.9
08:15 1014 29.94 844 24.92 6.9 44.3 58 -0.9 30.4
08:20 1014 29.94 844 24.92 6.9 44.5 55 -1.5 29.3
08:25 1014 29.94 844 24.92 6.9 44.5 56 -1.1 30
08:30 1014 29.94 844 24.92 7 44.6 57 -1 30.2
08:35 1015 29.97 844 24.92 7.1 44.7 56 -1 30.2
08:40 1015 29.97 844 24.92 7.1 44.8 57 -0.9 30.3
08:45 1015 29.97 844 24.92 7.1 44.8 57 -0.9 30.3
08:50 1015 29.97 844 24.92 7.2 44.9 57 -0.8 30.6
08:55 1015 29.97 844 24.92 7.2 44.9 59 -0.2 31.7
09:00 1015 29.97 844 24.92 7.1 44.8 58 -0.6 30.9
09:05 1015 29.97 844 24.92 7.2 44.9 55 -1.1 30
09:10 1015 29.97 844 24.92 7.3 45.1 58 -0.5 31.1
09:15 1015 29.97 844 24.92 7.3 45.1 55 -1 30.1
09:20 1015 29.97 844 24.92 7.4 45.3 55 -0.9 30.3
09:25 1015 29.97 844 24.92 7.5 45.5 56 -0.7 30.8
09:30 1015 29.97 844 24.92 7.5 45.6 57 -0.3 31.4
09:35 1015 29.97 844 24.92 7.7 45.8 57 -0.3 31.4
09:40 1015 29.97 844 24.92 7.8 46.1 57 -0.2 31.6
09:45 1015 29.97 844 24.92 7.8 46 57 -0.2 31.6
09:50 1015 29.97 844 24.92 7.9 46.2 58 0.2 32.3
09:55 1015 29.97 845 24.95 8 46.4 56 -0.1 31.7
10:00 1015 29.97 845 24.95 8 46.4 57 0.1 32.1
10:05 1015 29.97 845 24.95 7.9 46.3 58 0.3 32.6
10:10 1015 29.97 845 24.95 8.1 46.7 55 -0.3 31.5
10:15 1015 29.97 845 24.95 8.1 46.5 55 -0.3 31.5
10:20 1016 30 845 24.95 8.1 46.6 56 0 32
10:25 1015 29.97 845 24.95 8.2 46.7 56 -0.1 31.8
10:30 1016 30 845 24.95 8.2 46.7 56 -0.1 31.8
10:35 1016 30 845 24.95 8 46.4 56 -0.1 31.9
10:40 1016 30 845 24.95 7.8 46.1 58 0.1 32.2
10:45 1016 30 845 24.95 7.7 45.9 58 -0 32
10:50 1016 30 845 24.95 7.6 45.7 60 0.4 32.8
10:55 1016 30 845 24.95 7.8 46 57 -0.2 31.7
11:00 1016 30 845 24.95 8.1 46.5 56 -0.1 31.9
11:05 1016 30 845 24.95 8 46.4 57 -0.1 31.9
11:10 1016 30 845 24.95 8 46.4 54 -0.7 30.7
11:15 1016 30 845 24.95 8.1 46.7 52 -1 30.2
11:20 1016 30 845 24.95 8.2 46.7 53 -0.8 30.5
11:25 1016 30 845 24.95 8.3 46.9 52 -1.1 30
11:30 1016 30 845 24.95 8.3 46.9 53 -0.7 30.7
11:35 1016 30 845 24.95 8.3 46.9 52 -1 30.2
11:40 1016 30 845 24.95 8.3 47 53 -0.7 30.7
11:45 1016 30 845 24.95 8.3 46.9 52 -0.9 30.4
11:50 1016 30 845 24.95 8.2 46.7 52 -1.1 30.1
11:55 1016 30 845 24.95 8.1 46.6 52 -1.2 29.9
12:00 1016 30 845 24.95 8.2 46.8 53 -0.8 30.6
12:05 1016 30 845 24.95 8.2 46.7 52 -1.1 30
12:10 1016 30 845 24.95 8.3 46.9 52 -0.9 30.3
12:15 1016 30 845 24.95 8.2 46.8 53 -0.8 30.6
12:20 1016 30 845 24.95 8.2 46.8 53 -0.6 30.8
12:25 1016 30 845 24.95 8.3 46.9 54 -0.6 31
12:30 1016 30 845 24.95 8.2 46.7 53 -0.8 30.5
12:35 1016 30 845 24.95 8.2 46.7 53 -0.9 30.4
12:40 1016 30 845 24.95 8.2 46.8 54 -0.6 31
12:45 1016 30 845 24.95 8.4 47.1 53 -0.7 30.8
12:50 1016 30 845 24.95 8.7 47.6 51 -0.9 30.4
12:55 1016 30 845 24.95 8.7 47.7 53 -0.3 31.4
13:00 1016 30 845 24.95 9 48.1 50 -0.8 30.5
13:05 1016 30 845 24.95 9.1 48.3 50 -0.8 30.6
13:10 1016 30 845 24.95 8.9 48.1 50 -1 30.3
13:15 1016 30 845 24.95 9 48.1 50 -0.8 30.6
13:20 1016 30 845 24.95 9.2 48.5 50 -0.8 30.6
13:25 1016 30 845 24.95 9.1 48.5 50 -0.7 30.8
13:30 1016 30 846 24.98 9 48.1 50 -0.9 30.5
13:35 1016 30 846 24.98 8.8 47.9 48 -1.4 29.5
13:40 1016 30 846 24.98 8.8 47.8 49 -1.3 29.7
13:45 1016 30 846 24.98 9 48.2 49 -1.2 29.8
13:50 1016 30 846 24.98 8.9 48.1 50 -1 30.3
13:55 1016 30 846 24.98 8.9 48.1 50 -1 30.2
14:00 1017 30.03 846 24.98 8.9 48 47 -1.7 29
14:05 1017 30.03 846 24.98 8.8 47.8 49 -1.4 29.4
14:10 1017 30.03 846 24.98 8.8 47.8 49 -1.4 29.6
14:15 1017 30.03 846 24.98 8.9 48 46 -1.9 28.5
14:20 1017 30.03 846 24.98 8.9 48 48 -1.5 29.3
14:25 1017 30.03 846 24.98 9 48.3 48 -1.3 29.7
14:30 1017 30.03 846 24.98 9.3 48.7 48 -1.2 29.8
14:35 1017 30.03 846 24.98 9.7 49.4 49 -0.5 31
14:40 1017 30.03 846 24.98 9.9 49.7 46 -1.2 29.9
14:45 1017 30.03 846 24.98 9.7 49.5 47 -1 30.2
14:50 1017 30.03 846 24.98 9.6 49.3 47 -1.1 30.1
14:55 1017 30.03 846 24.98 9.6 49.4 47 -1 30.1
15:00 1017 30.03 846 24.98 9.9 49.8 47 -0.8 30.6
15:05 1017 30.03 846 24.98 10.3 50.5 48 -0.3 31.4
15:10 1017 30.03 846 24.98 10.3 50.5 47 -0.3 31.4
15:15 1017 30.03 846 24.98 10.2 50.3 47 -0.5 31
15:20 1017 30.03 846 24.98 10.4 50.7 47 -0.4 31.2
15:25 1017 30.03 846 24.98 10.6 51 46 -0.7 30.8
15:30 1017 30.03 846 24.98 10.5 50.9 53 1.4 34.5
15:35 1017 30.03 846 24.98 9.8 49.7 56 1.4 34.5
15:40 1017 30.03 846 24.98 9.7 49.4 56 1.4 34.5
15:45 1017 30.03 846 24.98 9.4 48.9 56 1.1 33.9
15:50 1017 30.03 846 24.98 9.8 49.7 55 1.3 34.3
15:55 1017 30.03 846 24.98 9.9 49.9 53 1 33.7
16:00 1017 30.03 846 24.98 10.1 50.1 53 1.1 33.9
16:05 1017 30.03 846 24.98 10 50.1 55 1.5 34.7
16:10 1017 30.03 846 24.98 10.3 50.6 52 0.9 33.6
16:15 1017 30.03 846 24.98 10.6 51.1 48 0.3 32.5
16:20 1017 30.03 846 24.98 11.2 52.1 47 0.2 32.3
16:25 1017 30.03 846 24.98 11.2 52.2 51 1.4 34.6
16:30 1017 30.03 846 24.98 10.7 51.3 50 0.7 33.3
16:35 1017 30.03 846 24.98 10.7 51.2 48 0.2 32.4
16:40 1017 30.03 846 24.98 10.9 51.6 50 0.9 33.7
16:45 1017 30.03 846 24.98 11.4 52.5 48 0.8 33.5
16:50 1017 30.03 846 24.98 11.2 52.2 50 1.2 34.2
16:55 1016 30 846 24.98 11 51.8 50 0.9 33.7
17:00 1016 30 846 24.98 11.1 51.9 49 0.7 33.3
17:05 1016 30 846 24.98 11.3 52.3 48 0.6 33.1
17:10 1016 30 846 24.98 11.4 52.6 49 1.1 33.9
17:15 1016 30 846 24.98 11.2 52.1 49 0.9 33.6
17:20 1016 30 846 24.98 11.1 51.9 51 1.4 34.6
17:25 1017 30.03 846 24.98 11.2 52.2 50 1.3 34.3
17:30 1017 30.03 846 24.98 11.7 53.1 45 0.3 32.5
17:35 1017 30.03 846 24.98 12.3 54.1 43 0.2 32.4
17:40 1017 30.03 846 24.98 12.3 54.1 42 -0.2 31.7
17:45 1017 30.03 846 24.98 12.5 54.4 41 -0.4 31.2
17:50 1017 30.03 846 24.98 12.6 54.7 38 -1.4 29.5
17:55 1017 30.03 846 24.98 12 53.6 41 -0.8 30.6
18:00 1017 30.03 846 24.98 11.9 53.5 40 -1.2 29.8
18:05 1017 30.03 846 24.98 12.3 54.2 38 -1.7 29
18:10 1017 30.03 846 24.98 12.5 54.5 37 -1.6 29.2
18:15 1017 30.03 846 24.98 12.4 54.2 36 -2.4 27.7
18:20 1017 30.03 846 24.98 12.2 54 36 -2.2 28
18:25 1017 30.03 846 24.98 12.3 54.2 40 -0.9 30.4
18:30 1017 30.03 846 24.98 12 53.6 41 -0.8 30.6
18:35 1017 30.03 846 24.98 11.6 52.9 43 -0.3 31.4
18:40 1017 30.03 846 24.98 11.5 52.6 45 -0.1 31.9
18:45 1017 30.03 846 24.98 11.6 52.8 44 -0.2 31.6
18:50 1017 30.03 846 24.98 11.4 52.5 45 -0.2 31.6
18:55 1017 30.03 846 24.98 11.1 52 47 0.3 32.5
19:00 1017 30.03 846 24.98 11 51.8 47 0.1 32.2
19:05 1017 30.03 846 24.98 11.2 52.2 45 -0.3 31.4
19:10 1017 30.03 846 24.98 11.2 52.1 46 0.1 32.1
19:15 1017 30.03 846 24.98 10.7 51.3 47 -0.1 31.7
19:20 1017 30.03 846 24.98 10.5 50.9 47 -0.2 31.7
19:25 1017 30.03 846 24.98 10.4 50.7 49 0.1 32.3
19:30 1017 30.03 846 24.98 10.3 50.5 50 0.4 32.6
19:35 1017 30.03 846 24.98 10.1 50.2 51 0.4 32.7
19:40 1017 30.03 847 25.01 10 50.1 52 0.8 33.4
19:45 1017 30.03 847 25.01 9.9 49.9 54 1 33.8
19:50 1017 30.03 847 25.01 9.8 49.6 55 1.1 34
19:55 1017 30.03 847 25.01 9.7 49.4 54 1 33.7
20:00 1017 30.03 847 25.01 9.6 49.3 55 1 33.8
20:05 1017 30.03 847 25.01 9.5 49.2 56 1.2 34.1
20:10 1017 30.03 847 25.01 9.6 49.2 56 1.3 34.3
20:15 1018 30.06 847 25.01 9.5 49.1 57 1.5 34.7
20:20 1018 30.06 847 25.01 9.4 48.9 58 1.5 34.7
20:25 1018 30.06 847 25.01 9.3 48.8 58 1.5 34.7
20:30 1018 30.06 847 25.01 9.2 48.5 58 1.5 34.7
20:35 1018 30.06 847 25.01 9.1 48.3 60 1.7 35
20:40 1018 30.06 847 25.01 9 48.3 60 1.6 34.9
20:45 1018 30.06 847 25.01 9 48.2 59 1.6 34.8
20:50 1018 30.06 847 25.01 9 48.1 57 1 33.7
20:55 1018 30.06 847 25.01 8.9 47.9 56 0.6 33.1
21:00 1018 30.06 847 25.01 8.7 47.6 55 0.2 32.3
21:05 1018 30.06 847 25.01 8.5 47.3 55 0.1 32.2
21:10 1018 30.06 847 25.01 8.4 47.2 56 0.3 32.5
21:15 1018 30.06 847 25.01 8.3 47 57 0.3 32.6
21:20 1018 30.06 847 25.01 8.3 46.9 57 0.2 32.4
21:25 1018 30.06 847 25.01 8.2 46.7 57 0.1 32.3
21:30 1018 30.06 848 25.04 8.1 46.7 57 0.3 32.5
21:35 1018 30.06 848 25.04 8.2 46.7 57 0.2 32.4
21:40 1019 30.09 848 25.04 8.3 46.9 57 0.2 32.4
21:45 1019 30.09 848 25.04 8.3 46.9 57 0.4 32.6
21:50 1019 30.09 848 25.04 8.3 46.9 59 0.7 33.3
21:55 1019 30.09 848 25.04 8.1 46.6 61 1 33.8
22:00 1019 30.09 848 25.04 8 46.4 62 1.3 34.3
22:05 1019 30.09 848 25.04 7.8 46 62 1.1 33.9
22:10 1019 30.09 848 25.04 7.7 45.9 63 1.3 34.3
22:15 1019 30.09 848 25.04 7.7 45.8 64 1.2 34.2
22:20 1019 30.09 848 25.04 7.6 45.7 62 0.9 33.6
22:25 1019 30.09 848 25.04 7.6 45.7 63 1 33.7
22:30 1019 30.09 848 25.04 7.6 45.7 63 1.1 33.9
22:35 1019 30.09 848 25.04 7.5 45.5 64 1.2 34.1
22:40 1019 30.09 848 25.04 7.4 45.3 65 1.3 34.3
22:45 1019 30.09 848 25.04 7.3 45.1 65 1.1 34
22:50 1019 30.09 849 25.07 7.3 45.1 64 0.9 33.6
22:55 1019 30.09 849 25.07 7.4 45.4 62 0.5 33
23:00 1019 30.09 849 25.07 7.6 45.6 60 0.4 32.7
23:05 1019 30.09 849 25.07 7.7 45.9 57 -0.2 31.7
23:10 1019 30.09 849 25.07 7.9 46.2 57 -0.1 31.8
23:15 1019 30.09 849 25.07 7.9 46.2 57 -0.1 31.9
23:20 1019 30.09 849 25.07 7.9 46.3 56 -0.2 31.7
23:25 1019 30.09 849 25.07 7.9 46.3 57 0 32
23:30 1019 30.09 849 25.07 7.9 46.2 57 0 32.1
23:35 1019 30.09 849 25.07 7.8 46.1 57 -0.1 31.8
23:40 1020 30.12 849 25.07 7.8 46.1 58 0.1 32.2
23:45 1020 30.12 849 25.07 7.7 45.9 59 0.2 32.4
23:50 1020 30.12 849 25.07 7.6 45.7 61 0.5 32.9
23:55 1020 30.12 849 25.07 7.5 45.4 61 0.4 32.7
24:00 1020 30.12 849 25.07 7.4 45.3 61 0.4 32.6